Index of /wp-content/uploads/sites/4/2016/10

[ICO]NameLast modifiedSizeDescription

[PARENTDIR]Parent Directory  -  
[IMG]©-GC36.Org_-120x120.jpg2026-04-09 16:27 4.3K 
[IMG]©-GC36.Org_-150x150.jpg2026-04-09 16:27 6.1K 
[IMG]©-GC36.Org_-300x170.jpg2026-04-09 16:27 12K 
[IMG]©-GC36.Org_-500x420.jpg2026-04-09 16:27 36K 
[IMG]©-GC36.Org_.jpg2021-08-31 22:47 51K 
[IMG]0.jpg2021-08-31 22:46 53K 
[IMG]00.png2021-08-31 22:47 286K 
[IMG]000.jpg2021-08-31 22:35 17K 
[IMG]0000.jpg2021-08-31 22:49 30K 
[IMG]00000.jpg2021-08-31 22:44 42K 
[IMG]00080_17102016-1.jpg2021-08-31 22:45 1.3M 
[IMG]00084_17102016.jpg2021-08-31 22:45 873K 
[IMG]02.jpg2021-08-31 22:38 23K 
[IMG]03.jpg2021-08-31 22:38 20K 
[IMG]03.png2021-08-31 22:40 187K 
[IMG]06-1.jpg2021-08-31 22:47 18K 
[IMG]06.jpg2021-08-31 22:38 18K 
[IMG]07.jpg2021-08-31 22:47 35K 
[IMG]08-1.jpg2021-08-31 22:48 29K 
[IMG]08.jpg2021-08-31 22:47 26K 
[IMG]1.png2021-08-31 22:47 183K 
[IMG]2.jpg2021-08-31 22:52 18K 
[IMG]2.png2021-08-31 22:40 164K 
[IMG]4.jpg2021-08-31 22:38 22K 
[IMG]7.jpg2021-08-31 22:34 48K 
[IMG]8.png2021-08-31 22:39 270K 
[IMG]10.jpg2021-08-31 22:47 45K 
[IMG]11-1.jpg2021-08-31 22:47 20K 
[IMG]11-2.jpg2021-08-31 22:49 14K 
[IMG]11.jpg2021-08-31 22:35 35K 
[IMG]11.png2021-08-31 22:37 249K 
[IMG]13.jpg2021-08-31 22:45 29K 
[IMG]15.png2021-08-31 22:39 195K 
[IMG]16.png2021-08-31 22:40 196K 
[IMG]17-Prix_Unesco1996r.jpg2021-08-31 22:50 43K 
[IMG]17.jpg2021-08-31 22:34 43K 
[IMG]18.jpg2021-08-31 22:45 33K 
[IMG]21-1.jpg2021-08-31 22:50 44K 
[IMG]21.jpg2021-08-31 22:45 20K 
[IMG]22.png2021-08-31 22:40 253K 
[IMG]41.jpg2021-08-31 22:34 23K 
[IMG]52-120x120.jpg2026-04-09 16:22 5.1K 
[IMG]52-150x150.jpg2026-04-09 16:22 7.6K 
[IMG]52-300x178.jpg2026-04-09 16:22 16K 
[IMG]52.jpg2021-08-31 22:38 30K 
[IMG]54-120x120.jpg2026-04-09 16:20 5.8K 
[IMG]54-150x150.jpg2026-04-09 16:20 8.4K 
[IMG]54-300x181.jpg2026-04-09 16:20 17K 
[IMG]54.jpg2021-08-31 22:39 30K 
[IMG]57.jpg2021-08-31 22:39 16K 
[IMG]58.jpg2021-08-31 22:39 13K 
[IMG]61.jpg2021-08-31 22:34 20K 
[IMG]64.jpg2021-08-31 22:39 25K 
[IMG]65.jpg2021-08-31 22:34 34K 
[IMG]97.jpg2021-08-31 22:54 25K 
[IMG]642px-Middle_east.jpg2021-08-31 22:46 119K 
[IMG]800px-Haiti_earthquake_damage.jpg2021-08-31 22:44 181K 
[IMG]800px-Roma_Trevi_Università_Gregoriana-120x120.jpg2026-04-09 16:15 5.0K 
[IMG]800px-Roma_Trevi_Università_Gregoriana-150x150.jpg2026-04-09 16:15 7.8K 
[IMG]800px-Roma_Trevi_Università_Gregoriana-300x225.jpg2026-04-09 16:15 22K 
[IMG]800px-Roma_Trevi_Università_Gregoriana-500x500.jpg2026-04-09 16:15 85K 
[IMG]800px-Roma_Trevi_Università_Gregoriana-768x576.jpg2026-04-09 16:15 145K 
[IMG]800px-Roma_Trevi_Università_Gregoriana.jpg2021-08-31 22:38 188K 
[IMG]800px-Sérgio_da_Rocha-120x120.jpg2026-04-10 18:04 3.8K 
[IMG]800px-Sérgio_da_Rocha-150x150.jpg2026-04-10 18:04 5.4K 
[IMG]800px-Sérgio_da_Rocha-286x300.jpg2026-04-10 18:04 15K 
[IMG]800px-Sérgio_da_Rocha-500x500.jpg2026-04-10 18:04 37K 
[IMG]800px-Sérgio_da_Rocha-768x804.jpg2026-04-10 18:04 75K 
[IMG]800px-Sérgio_da_Rocha.jpg2021-08-31 22:44 84K 
[IMG]800px-Taipei_Baoan_Temple.jpg2021-08-31 22:45 107K 
[IMG]1280px-Albert_Neuhuys_-_Middagmaal_in_een_boerengezin.jpg2021-08-31 22:46 215K 
[IMG]1280px-Dharavi_slum_in_Mumbai_India_August_2009.jpg2021-08-31 22:46 201K 
[IMG]1280px-Point_Lookout_I_old_cemetery_@_Angola.-120x120.jpg2026-04-09 22:11 3.9K 
[IMG]1280px-Point_Lookout_I_old_cemetery_@_Angola.-150x150.jpg2026-04-09 22:11 6.0K 
[IMG]1280px-Point_Lookout_I_old_cemetery_@_Angola.-300x225.jpg2026-04-09 22:11 16K 
[IMG]1280px-Point_Lookout_I_old_cemetery_@_Angola.-500x500.jpg2026-04-09 22:11 61K 
[IMG]1280px-Point_Lookout_I_old_cemetery_@_Angola.-768x576.jpg2026-04-09 22:11 106K 
[IMG]1280px-Point_Lookout_I_old_cemetery_@_Angola.-1024x768.jpg2026-04-09 22:11 183K 
[IMG]1280px-Point_Lookout_I_old_cemetery_@_Angola..jpg2021-08-31 22:46 315K 
[IMG]5715c7f8c6987c5ac8f1ba28b942463f_M.jpg2021-08-31 22:50 108K 
[IMG]6802.jpg2021-08-31 22:39 8.8K 
[IMG]10418.jpg2021-08-31 22:39 18K 
[IMG]150611-01-740x493.jpg2021-08-31 22:49 155K 
[IMG]339164_26102016.jpg2021-08-31 22:49 791K 
[IMG]339337_26102016.jpg2021-08-31 22:49 1.3M 
[IMG]14642668_10210637884974118_1114277252_n.jpg2021-08-31 22:40 93K 
[IMG]20161005_0045.jpg2021-08-31 22:39 1.0M 
[IMG]20161005_0062.jpg2021-08-31 22:39 1.5M 
[IMG]20161005_0090.jpg2021-08-31 22:39 1.3M 
[IMG]20161012_0031.jpg2021-08-31 22:44 1.4M 
[IMG]20161012_0367.jpg2021-08-31 22:44 1.3M 
[IMG]20161012_0376.jpg2021-08-31 22:44 1.5M 
[IMG]AAA0085-1.jpg2021-08-31 22:39 1.6M 
[IMG]AAA0126.jpg2021-08-31 22:46 932K 
[IMG]AAA0139-120x120.jpg2026-04-10 01:03 5.1K 
[IMG]AAA0139-150x150.jpg2026-04-10 01:02 7.4K 
[IMG]AAA0139-300x200.jpg2026-04-10 01:02 16K 
[IMG]AAA0139-500x500.jpg2026-04-10 01:03 47K 
[IMG]AAA0139-768x512.jpg2026-04-10 01:02 66K 
[IMG]AAA0139-1024x683.jpg2026-04-10 01:02 101K 
[IMG]AAA0139-1320x880.jpg2026-04-10 01:03 147K 
[IMG]AAA0139-1536x1024.jpg2026-04-10 01:02 183K 
[IMG]AAA0139-2048x1365.jpg2026-04-10 01:03 280K 
[IMG]AAA0139-scaled.jpg2026-04-10 01:02 387K 
[IMG]AAA0139.jpg2021-08-31 22:38 496K 
[IMG]AAA0182-1.jpg2021-08-31 22:39 1.1M 
[IMG]AAA0235-1.jpg2021-08-31 22:39 1.0M 
[IMG]AAA0262-1.jpg2021-08-31 22:49 1.1M 
[IMG]AAA0264.jpg2021-08-31 22:38 1.4M 
[IMG]AAA0288.jpg2021-08-31 22:44 1.2M 
[IMG]AAA0340.jpg2021-08-31 22:38 1.2M 
[IMG]AAA0348.jpg2021-08-31 22:38 1.1M 
[IMG]AAA0358-1.jpg2021-08-31 22:49 1.1M 
[IMG]AAA0361.jpg2021-08-31 22:38 1.3M 
[IMG]AAA0377_1-120x120.jpg2026-04-09 20:27 5.1K 
[IMG]AAA0377_1-150x150.jpg2026-04-09 20:27 8.0K 
[IMG]AAA0377_1-300x200.jpg2026-04-09 20:27 18K 
[IMG]AAA0377_1-500x500.jpg2026-04-09 20:27 73K 
[IMG]AAA0377_1-768x512.jpg2026-04-09 20:27 99K 
[IMG]AAA0377_1-1024x683.jpg2026-04-09 20:27 166K 
[IMG]AAA0377_1-1320x880.jpg2026-04-09 20:27 260K 
[IMG]AAA0377_1-1536x1024.jpg2026-04-09 20:27 341K 
[IMG]AAA0377_1-2048x1365.jpg2026-04-09 20:27 580K 
[IMG]AAA0377_1-scaled.jpg2026-04-09 20:27 877K 
[IMG]AAA0377_1.jpg2021-08-31 22:44 1.8M 
[IMG]AAA0386-1.jpg2021-08-31 22:49 1.3M 
[IMG]AAA0402.jpg2021-08-31 22:38 1.0M 
[IMG]AAA0458-120x120.jpg2026-04-11 11:59 5.8K 
[IMG]AAA0458-150x150.jpg2026-04-11 11:59 8.6K 
[IMG]AAA0458-300x200.jpg2026-04-11 11:59 19K 
[IMG]AAA0458-500x500.jpg2026-04-11 11:59 65K 
[IMG]AAA0458-768x512.jpg2026-04-11 11:59 97K 
[IMG]AAA0458-1024x683.jpg2026-04-11 11:59 161K 
[IMG]AAA0458-1320x880.jpg2026-04-11 11:59 247K 
[IMG]AAA0458-1536x1024.jpg2026-04-11 11:59 319K 
[IMG]AAA0458-2048x1365.jpg2026-04-11 11:59 512K 
[IMG]AAA0458-scaled.jpg2026-04-11 11:59 728K 
[IMG]AAA0458.jpg2021-08-31 22:38 1.3M 
[IMG]ACS-Italia-org-120x120.jpg2026-04-11 03:19 5.4K 
[IMG]ACS-Italia-org-150x150.jpg2026-04-11 03:19 8.0K 
[IMG]ACS-Italia-org-300x233.jpg2026-04-11 03:19 20K 
[IMG]ACS-Italia-org.jpg2021-08-31 22:49 32K 
[IMG]AFFICHE-A3-octobre-2016.jpg2021-08-31 22:34 379K 
[IMG]An_artists_impression_of_a_Pioneer_spacecraft_on_its_way_to_interstellar_space-120x120.jpg2026-04-10 01:37 3.5K 
[IMG]An_artists_impression_of_a_Pioneer_spacecraft_on_its_way_to_interstellar_space-150x150.jpg2026-04-10 01:37 5.2K 
[IMG]An_artists_impression_of_a_Pioneer_spacecraft_on_its_way_to_interstellar_space-300x248.jpg2026-04-10 01:37 16K 
[IMG]An_artists_impression_of_a_Pioneer_spacecraft_on_its_way_to_interstellar_space-500x500.jpg2026-04-10 01:37 56K 
[IMG]An_artists_impression_of_a_Pioneer_spacecraft_on_its_way_to_interstellar_space.jpg2021-08-31 22:46 106K 
[IMG]Augustins-120x120.jpg2026-04-11 00:54 4.5K 
[IMG]Augustins-150x150.jpg2026-04-11 00:54 6.6K 
[IMG]Augustins-300x200.jpg2026-04-11 00:54 15K 
[IMG]Augustins-500x500.jpg2026-04-11 00:54 45K 
[IMG]Augustins-768x512.jpg2026-04-11 00:54 65K 
[IMG]Augustins.jpg2021-08-31 22:46 50K 
[IMG]Auschwitz.jpg2021-08-31 22:46 448K 
[IMG]Baltazar-porras-papa-Francisco1.jpg2021-08-31 22:45 50K 
[IMG]COM-INT1-Amphis-dailleurs-flickr.jpg2021-08-31 22:34 21K 
[IMG]Capture-d’écran-1265.png2021-08-31 22:35 1.0M 
[IMG]Capture-d’écran-1309.png2021-08-31 22:35 939K 
[IMG]Capture-d’écran-1318.png2021-08-31 22:35 531K 
[IMG]Capture-d’écran-1373.png2021-08-31 22:36 420K 
[IMG]Capture-d’écran-1390.png2021-08-31 22:37 1.1M 
[IMG]Capture-d’écran-1417.png2021-08-31 22:37 952K 
[IMG]Capture-d’écran-1438.png2021-08-31 22:40 519K 
[IMG]Capture-d’écran-1441.png2021-08-31 22:41 527K 
[IMG]Capture-d’écran-1443.png2021-08-31 22:41 540K 
[IMG]Capture-d’écran-1444.png2021-08-31 22:42 1.1M 
[IMG]Capture-d’écran-1447.png2021-08-31 22:43 778K 
[IMG]Capture-d’écran-1449.png2021-08-31 22:42 487K 
[IMG]Capture-d’écran-1455.png2021-08-31 22:43 1.3M 
[IMG]Capture-d’écran-1614.png2021-08-31 22:45 540K 
[IMG]Capture-d’écran-1735.png2021-08-31 22:48 534K 
[IMG]Capture-d’écran-1753.png2021-08-31 22:48 734K 
[IMG]Capture-d’écran-1759.png2021-08-31 22:51 595K 
[IMG]Capture-d’écran-1762.png2021-08-31 22:50 1.5M 
[IMG]Capture-d’écran-1764.png2021-08-31 22:50 678K 
[IMG]Capture-d’écran-1777-120x120.png2026-04-11 03:59 22K 
[IMG]Capture-d’écran-1777-150x150.png2026-04-11 03:59 31K 
[IMG]Capture-d’écran-1777-300x169.png2026-04-11 03:59 65K 
[IMG]Capture-d’écran-1777-500x500.png2026-04-11 03:59 215K 
[IMG]Capture-d’écran-1777-768x432.png2026-04-11 03:59 295K 
[IMG]Capture-d’écran-1777-1024x576.png2026-04-11 03:59 461K 
[IMG]Capture-d’écran-1777-1320x742.png2026-04-11 04:00 683K 
[IMG]Capture-d’écran-1777.png2021-08-31 22:53 645K 
[IMG]Capture-d’écran-1802.png2021-08-31 22:54 389K 
[IMG]Capture-d’écran-1806.png2021-08-31 22:54 440K 
[IMG]Capture-d’écran-1809-120x120.png2026-04-09 17:49 23K 
[IMG]Capture-d’écran-1809-150x150.png2026-04-09 17:48 35K 
[IMG]Capture-d’écran-1809-300x169.png2026-04-09 17:48 63K 
[IMG]Capture-d’écran-1809-500x500.png2026-04-09 17:49 255K 
[IMG]Capture-d’écran-1809-768x432.png2026-04-09 17:49 299K 
[IMG]Capture-d’écran-1809-1024x576.png2026-04-09 17:48 458K 
[IMG]Capture-d’écran-1809-1320x742.png2026-04-09 17:49 709K 
[IMG]Capture-d’écran-1809.png2021-08-31 22:54 653K 
[IMG]Card-Kurt-Koch-REv.-Martin-Junge-Foto-ZENIT-cc-120x120.jpg2026-04-12 14:53 4.3K 
[IMG]Card-Kurt-Koch-REv.-Martin-Junge-Foto-ZENIT-cc-150x150.jpg2026-04-12 14:53 6.2K 
[IMG]Card-Kurt-Koch-REv.-Martin-Junge-Foto-ZENIT-cc-300x208.jpg2026-04-12 14:53 13K 
[IMG]Card-Kurt-Koch-REv.-Martin-Junge-Foto-ZENIT-cc-500x500.jpg2026-04-12 14:53 39K 
[IMG]Card-Kurt-Koch-REv.-Martin-Junge-Foto-ZENIT-cc-768x533.jpg2026-04-12 14:53 55K 
[IMG]Card-Kurt-Koch-REv.-Martin-Junge-Foto-ZENIT-cc.jpg2021-08-31 22:49 148K 
[IMG]Card.-Veglio-13-oct-2016.jpg2021-08-31 22:44 99K 
[IMG]Card.-Veglio-HSM-Ze.jpg2021-08-31 22:44 124K 
[IMG]Card.-Veglio-HSM.jpg2021-08-31 22:44 85K 
[IMG]Cardinal-Veglio-HSM.jpg2021-08-31 22:44 60K 
[IMG]Cementerio-de-San-José-en-Granada-España.-Wikicommons-cc-YHIM-740x493.jpg2021-08-31 22:47 75K 
[IMG]Ct6GLjdWIAABSg8.jpg2021-08-12 10:06 171K 
[IMG]Ct6KUFHWIAAP2ff.jpg2021-08-12 10:06 206K 
[IMG]Ct6tAa4WIAAT2w_.jpg2021-08-12 10:06 155K 
[IMG]CtvCw_RWcAAIlcE.jpg2021-08-12 10:07 47K 
[IMG]Ctvrx6uWgAAqroB.jpg2021-08-12 10:07 134K 
[IMG]Cu4iXvXXEAAh3hz.jpg2021-08-12 10:04 185K 
[IMG]Cu4qzJMWEAAz_uU.jpg2021-08-12 10:04 273K 
[IMG]CwHSR4QXYAE4HrP.jpg2021-08-12 10:01 18K 
[IMG]DSC0120.jpg2021-08-31 22:37 892K 
[IMG]DSC0712-120x120.jpg2026-04-10 23:15 3.3K 
[IMG]DSC0712-150x150.jpg2026-04-10 23:15 4.5K 
[IMG]DSC0712-300x200.jpg2026-04-10 23:15 9.9K 
[IMG]DSC0712-500x500.jpg2026-04-10 23:15 26K 
[IMG]DSC0712-768x512.jpg2026-04-10 23:15 39K 
[IMG]DSC0712-1024x683.jpg2026-04-10 23:15 60K 
[IMG]DSC0712-1320x880.jpg2026-04-10 23:15 87K 
[IMG]DSC0712-1536x1024.jpg2026-04-10 23:15 112K 
[IMG]DSC0712-2048x1365.jpg2026-04-10 23:15 182K 
[IMG]DSC0712-scaled.jpg2026-04-10 23:15 276K 
[IMG]DSC0712.jpg2021-08-31 22:37 534K 
[IMG]DSC0743.jpg2021-08-31 22:37 1.0M 
[IMG]Dhaka_Catholic_Cathedral_of_the_Immaculate_Conception.jpg2021-08-31 22:44 12K 
[IMG]Diwali-740x493.jpg2021-08-31 22:47 72K 
[IMG]Jens_Stoltenberg_February_2015-Creative-Commons-Attribution-Germany-3.0-Koch-MSC.jpg2021-08-31 22:44 20K 
[IMG]Lode-Aerts-2-500x334.jpg2021-08-31 22:38 18K 
[IMG]Mgr-Carlos-Osoro-Photo-Archidiócesis-De-Madrid-Cc.jpg2021-08-31 22:40 59K 
[IMG]Mgr-Dognin.jpg2021-08-31 22:44 38K 
[IMG]Mi_Vocacion-120x120.jpg2026-04-11 10:24 3.8K 
[IMG]Mi_Vocacion-150x150.jpg2026-04-11 10:24 5.2K 
[IMG]Mi_Vocacion-300x198.jpg2026-04-11 10:24 10K 
[IMG]Mi_Vocacion-500x395.jpg2026-04-11 10:24 24K 
[IMG]Mi_Vocacion.jpg2021-08-12 10:03 28K 
[IMG]Pallottins-120x120.jpg2026-04-09 18:57 4.5K 
[IMG]Pallottins-150x150.jpg2026-04-09 18:57 6.3K 
[IMG]Pallottins-300x200.jpg2026-04-09 18:57 14K 
[IMG]Pallottins-500x500.jpg2026-04-09 18:57 36K 
[IMG]Pallottins-768x512.jpg2026-04-09 18:57 53K 
[IMG]Pallottins.jpg2021-08-12 10:05 44K 
[IMG]Présentation-de-lInstruction-sur-la-sépulture-120x120.jpg2026-04-11 19:04 4.2K 
[IMG]Présentation-de-lInstruction-sur-la-sépulture-150x150.jpg2026-04-11 19:04 5.9K 
[IMG]Présentation-de-lInstruction-sur-la-sépulture-300x185.jpg2026-04-11 19:04 12K 
[IMG]Présentation-de-lInstruction-sur-la-sépulture-500x500.jpg2026-04-11 19:04 39K 
[IMG]Présentation-de-lInstruction-sur-la-sépulture-768x473.jpg2026-04-11 19:04 52K 
[IMG]Présentation-de-lInstruction-sur-la-sépulture-1024x631.jpg2026-04-11 19:04 81K 
[IMG]Présentation-de-lInstruction-sur-la-sépulture.jpg2021-08-31 22:47 85K 
[IMG]Présentationd-e-louverture-du-palais-de-Castel-Gandolfo-120x120.jpg2026-04-09 16:39 5.7K 
[IMG]Présentationd-e-louverture-du-palais-de-Castel-Gandolfo-150x150.jpg2026-04-09 16:39 8.5K 
[IMG]Présentationd-e-louverture-du-palais-de-Castel-Gandolfo-300x169.jpg2026-04-09 16:39 16K 
[IMG]Présentationd-e-louverture-du-palais-de-Castel-Gandolfo-500x500.jpg2026-04-09 16:39 54K 
[IMG]Présentationd-e-louverture-du-palais-de-Castel-Gandolfo-768x432.jpg2026-04-09 16:39 71K 
[IMG]Présentationd-e-louverture-du-palais-de-Castel-Gandolfo.jpg2021-08-31 22:47 84K 
[IMG]Président-Kaboré-120x120.jpg2026-04-09 17:19 5.2K 
[IMG]Président-Kaboré-150x150.jpg2026-04-09 17:19 7.3K 
[IMG]Président-Kaboré-300x200.jpg2026-04-09 17:19 14K 
[IMG]Président-Kaboré-500x425.jpg2026-04-09 17:19 39K 
[IMG]Président-Kaboré.jpg2021-08-31 22:46 215K 
[IMG]SFO0135_1.jpg2021-08-31 22:52 1.3M 
[IMG]SFO0549.jpg2021-08-31 22:52 1.4M 
[IMG]SFO0637-120x120.jpg2026-04-10 20:27 4.4K 
[IMG]SFO0637-150x150.jpg2026-04-10 20:27 6.2K 
[IMG]SFO0637-300x200.jpg2026-04-10 20:27 13K 
[IMG]SFO0637-500x500.jpg2026-04-10 20:27 34K 
[IMG]SFO0637-768x511.jpg2026-04-10 20:27 47K 
[IMG]SFO0637-1024x681.jpg2026-04-10 20:27 72K 
[IMG]SFO0637-1320x878.jpg2026-04-10 20:27 104K 
[IMG]SFO0637-1536x1022.jpg2026-04-10 20:27 130K 
[IMG]SFO0637-2048x1363.jpg2026-04-10 20:27 203K 
[IMG]SFO0637-scaled.jpg2026-04-10 20:27 292K 
[IMG]SFO0637.jpg2021-08-31 22:52 943K 
[IMG]SFO6957.jpg2021-08-31 22:49 787K 
[IMG]SFO6972.jpg2021-08-31 22:49 915K 
[IMG]SFO7350.jpg2021-08-31 22:46 2.0M 
[IMG]SFO7411.jpg2021-08-31 22:46 2.0M 
[IMG]SFO7534-120x120.jpg2026-04-10 00:57 5.4K 
[IMG]SFO7534-150x150.jpg2026-04-10 00:56 8.0K 
[IMG]SFO7534-300x200.jpg2026-04-10 00:56 18K 
[IMG]SFO7534-500x500.jpg2026-04-10 00:57 60K 
[IMG]SFO7534-768x512.jpg2026-04-10 00:56 88K 
[IMG]SFO7534-1024x683.jpg2026-04-10 00:56 146K 
[IMG]SFO7534-1320x880.jpg2026-04-10 00:57 227K 
[IMG]SFO7534-1536x1024.jpg2026-04-10 00:57 299K 
[IMG]SFO7534-2048x1365.jpg2026-04-10 00:57 515K 
[IMG]SFO7534-scaled.jpg2026-04-10 00:56 797K 
[IMG]SFO7534.jpg2021-08-31 22:47 1.7M 
[IMG]SFO9970_1.jpg2021-08-31 22:52 846K 
[IMG]SOS-village.jpg2021-08-31 22:44 54K 
[IMG]Save-Aleppo-480x480.jpg2021-08-31 22:40 159K 
[IMG]Ste-Marthe-11-octobre-2016.jpg2021-08-31 22:40 55K 
[IMG]T7-COUV-seule1-septRVB-10.jpg2021-08-31 22:44 169K 
[IMG]WIKI-Cupich_2-740x493-120x120.jpg2026-04-11 15:16 3.0K 
[IMG]WIKI-Cupich_2-740x493-150x150.jpg2026-04-11 15:16 4.2K 
[IMG]WIKI-Cupich_2-740x493-300x200.jpg2026-04-11 15:16 7.8K 
[IMG]WIKI-Cupich_2-740x493-500x493.jpg2026-04-11 15:16 35K 
[IMG]WIKI-Cupich_2-740x493.jpg2021-08-31 22:44 77K 
[IMG]WP_20161007_0051.jpg2021-08-31 22:39 156K 
[IMG]b_1_q_0_p_0.png2021-08-31 22:44 13K 
[IMG]bart.jpg2021-08-31 22:46 42K 
[IMG]benin.jpg2021-08-31 22:47 45K 
[IMG]cam.jpg2021-08-31 22:47 84K 
[IMG]canonisations.jpg2021-08-31 22:44 254K 
[IMG]cc.jpg2021-08-31 22:49 63K 
[IMG]ccee.jpg2021-08-31 22:39 32K 
[IMG]chapelet.jpg2021-08-31 22:48 36K 
[IMG]chapelet2.jpg2021-08-31 22:48 50K 
[IMG]chapelet3-120x120.jpg2026-04-11 23:04 4.8K 
[IMG]chapelet3-150x150.jpg2026-04-11 23:04 6.7K 
[IMG]chapelet3-300x173.jpg2026-04-11 23:04 12K 
[IMG]chapelet3-500x500.jpg2026-04-11 23:04 33K 
[IMG]chapelet3-768x443.jpg2026-04-11 23:04 42K 
[IMG]chapelet3.jpg2021-08-31 22:48 56K 
[IMG]concert2-120x120.jpg2026-04-09 17:11 5.4K 
[IMG]concert2-150x150.jpg2026-04-09 17:11 8.0K 
[IMG]concert2-300x207.jpg2026-04-09 17:11 18K 
[IMG]concert2-500x500.jpg2026-04-09 17:11 56K 
[IMG]concert2-768x531.jpg2026-04-09 17:11 81K 
[IMG]concert2.jpg2021-08-31 22:49 85K 
[IMG]corti.jpg2021-08-31 22:45 25K 
[IMG]cq5dam-2.jpg2021-08-31 22:45 216K 
[IMG]cvii.jpg2021-08-31 22:49 104K 
[IMG]cvii2.jpg2021-08-31 22:49 91K 
[IMG]f_wipo_15162545897_600-120x120.jpg2026-04-09 22:56 4.7K 
[IMG]f_wipo_15162545897_600-150x150.jpg2026-04-09 22:56 6.9K 
[IMG]f_wipo_15162545897_600-300x200.jpg2026-04-09 22:56 16K 
[IMG]f_wipo_15162545897_600-500x400.jpg2026-04-09 22:56 43K 
[IMG]f_wipo_15162545897_600.jpg2021-08-31 22:39 52K 
[IMG]fondo-1.jpg2021-08-31 22:45 360K 
[IMG]gand-120x120.jpg2026-04-09 16:49 5.0K 
[IMG]gand-150x150.jpg2026-04-09 16:49 7.3K 
[IMG]gand-300x172.jpg2026-04-09 16:49 15K 
[IMG]gand.jpg2021-08-31 22:45 26K 
[IMG]giovanni-paolo-II.jpg2021-08-31 22:45 168K 
[IMG]inst.jpg2021-08-31 22:44 25K 
[IMG]israel.jpg2021-08-31 22:49 19K 
[IMG]jacques-hamel-120x120.jpg2026-04-09 16:26 3.1K 
[IMG]jacques-hamel-150x150.jpg2026-04-09 16:26 4.2K 
[IMG]jacques-hamel-300x168.jpg2026-04-09 16:26 8.7K 
[IMG]jacques-hamel-500x347.jpg2026-04-09 16:26 21K 
[IMG]jacques-hamel.jpg2021-08-31 22:52 35K 
[IMG]jerzy.jpg2021-08-31 22:45 54K 
[IMG]jes-120x120.jpg2026-04-09 18:39 3.9K 
[IMG]jes-150x150.jpg2026-04-09 18:39 5.6K 
[IMG]jes-300x209.jpg2026-04-09 18:39 12K 
[IMG]jes-500x500.jpg2026-04-09 18:39 36K 
[IMG]jes-768x535.jpg2026-04-09 18:39 54K 
[IMG]jes-1024x713.jpg2026-04-09 18:39 91K 
[IMG]jes.jpg2021-08-31 22:46 136K 
[IMG]kesel-120x120.jpg2026-04-11 19:49 3.0K 
[IMG]kesel-150x150.jpg2026-04-11 19:49 4.2K 
[IMG]kesel-300x224.jpg2026-04-11 19:49 8.7K 
[IMG]kesel-500x436.jpg2026-04-11 19:49 21K 
[IMG]kesel.jpg2021-08-31 22:45 21K 
[IMG]ko.jpg2021-08-31 22:38 11K 
[IMG]kuala-120x120.jpg2026-04-09 20:28 3.1K 
[IMG]kuala-150x150.jpg2026-04-09 20:28 4.2K 
[IMG]kuala.jpg2021-08-31 22:45 5.4K 
[IMG]lesot-120x120.jpg2026-04-10 10:19 4.2K 
[IMG]lesot-150x150.jpg2026-04-10 10:19 5.9K 
[IMG]lesot-300x221.jpg2026-04-10 10:19 14K 
[IMG]lesot-500x369.jpg2026-04-10 10:19 31K 
[IMG]lesot.jpg2021-08-31 22:45 29K 
[IMG]logo.jpg2021-08-31 22:39 13K 
[IMG]messe.jpg2021-08-31 22:45 47K 
[IMG]omi.jpg2021-08-31 22:39 36K 
[IMG]or161005093816_24381.jpg2021-08-31 22:38 564K 
[IMG]or161005094218_24418-120x120.jpg2026-04-10 17:49 3.9K 
[IMG]or161005094218_24418-150x150.jpg2026-04-10 17:49 5.8K 
[IMG]or161005094218_24418-300x200.jpg2026-04-10 17:49 14K 
[IMG]or161005094218_24418-500x500.jpg2026-04-10 17:49 52K 
[IMG]or161005094218_24418-768x512.jpg2026-04-10 17:49 82K 
[IMG]or161005094218_24418-1024x683.jpg2026-04-10 17:49 143K 
[IMG]or161005094218_24418-1320x880.jpg2026-04-10 17:49 230K 
[IMG]or161005094218_24418-1536x1024.jpg2026-04-10 17:49 304K 
[IMG]or161005094218_24418-2048x1365.jpg2026-04-10 17:49 512K 
[IMG]or161005094218_24418-scaled.jpg2026-04-10 17:49 751K 
[IMG]or161005094218_24418.jpg2021-08-31 22:38 1.4M 
[IMG]or161005105701_00283.jpg2021-08-31 22:38 1.2M 
[IMG]or161013120419_00020.jpg2021-08-31 22:44 1.1M 
[IMG]or161015115823_00004.jpg2021-08-31 22:45 1.3M 
[IMG]or161015120945_00106.jpg2021-08-31 22:45 917K 
[IMG]or161021114000_23991.jpg2021-08-31 22:46 1.1M 
[IMG]or161021114208_24007.jpg2021-08-31 22:46 1.2M 
[IMG]or161026093647_00412.jpg2021-08-31 22:49 961K 
[IMG]or161027121928_24400.jpg2021-08-31 22:49 1.2M 
[IMG]or161027122126_24534.jpg2021-08-31 22:49 742K 
[IMG]or161031090433_00086-120x120.jpg2026-04-09 16:23 3.8K 
[IMG]or161031090433_00086-150x150.jpg2026-04-09 16:23 5.5K 
[IMG]or161031090433_00086-300x200.jpg2026-04-09 16:23 12K 
[IMG]or161031090433_00086-500x500.jpg2026-04-09 16:23 33K 
[IMG]or161031090433_00086-768x512.jpg2026-04-09 16:23 48K 
[IMG]or161031090433_00086-1024x683.jpg2026-04-09 16:23 73K 
[IMG]or161031090433_00086-1320x880.jpg2026-04-09 16:23 106K 
[IMG]or161031090433_00086-1536x1024.jpg2026-04-09 16:23 133K 
[IMG]or161031090433_00086-2048x1365.jpg2026-04-09 16:23 209K 
[IMG]or161031090433_00086-scaled.jpg2026-04-09 16:23 298K 
[IMG]or161031090433_00086.jpg2021-08-31 22:52 859K 
[IMG]or161031090437_00002.jpg2021-08-31 22:52 867K 
[IMG]or161031090952_00087.jpg2021-08-31 22:51 1.0M 
[IMG]papa_welby_studio.jpg2021-08-31 22:39 126K 
[IMG]pere_recteur.jpg2021-08-31 22:47 36K 
[IMG]photo.jpg2021-08-31 22:44 87K 
[IMG]piat-120x120.jpg2026-04-09 19:42 6.1K 
[IMG]piat-150x150.jpg2026-04-09 19:42 8.8K 
[IMG]piat-300x225.jpg2026-04-09 19:42 21K 
[IMG]piat-500x476.jpg2026-04-09 19:42 50K 
[IMG]piat.jpg2021-08-31 22:45 59K 
[IMG]sainte-Marthe.jpg2021-08-31 22:47 95K 
[IMG]sixtine-120x120.jpg2026-04-09 23:46 5.4K 
[IMG]sixtine-150x150.jpg2026-04-09 23:46 8.1K 
[IMG]sixtine-300x210.jpg2026-04-09 23:46 19K 
[IMG]sixtine-500x500.jpg2026-04-09 23:46 56K 
[IMG]sixtine-768x537.jpg2026-04-09 23:46 86K 
[IMG]sixtine-1024x715.jpg2026-04-09 23:46 133K 
[IMG]sixtine.jpg2021-08-31 22:39 153K 
[IMG]slo-120x120.jpg2026-04-10 14:37 3.8K 
[IMG]slo-150x150.jpg2026-04-10 14:37 5.4K 
[IMG]slo-300x197.jpg2026-04-10 14:37 12K 
[IMG]slo-500x393.jpg2026-04-10 14:37 28K 
[IMG]slo.jpg2021-08-31 22:45 30K 
[IMG]trafic-120x120.jpg2026-04-10 15:44 3.5K 
[IMG]trafic-150x150.jpg2026-04-10 15:44 4.7K 
[IMG]trafic-300x201.jpg2026-04-10 15:44 9.3K 
[IMG]trafic-500x500.jpg2026-04-10 15:44 25K 
[IMG]trafic-768x513.jpg2026-04-10 15:44 35K 
[IMG]trafic.jpg2021-08-31 22:49 34K 
[IMG]traite-120x120.jpg2026-04-09 23:20 5.0K 
[IMG]traite-150x150.jpg2026-04-09 23:20 7.2K 
[IMG]traite-300x166.jpg2026-04-09 23:20 13K 
[IMG]traite-500x349.jpg2026-04-09 23:20 36K 
[IMG]traite.jpg2021-08-31 22:49 42K 
[IMG]udienza-giubilare-740x493.jpg2021-08-31 22:44 66K 
[IMG]unnamed-1.jpg2021-08-12 10:04 53K 
[IMG]unnamed-2-120x120.jpg2026-04-11 05:22 2.7K 
[IMG]unnamed-2-150x150.jpg2026-04-11 05:22 3.7K 
[IMG]unnamed-2-200x300.jpg2026-04-11 05:22 7.0K 
[IMG]unnamed-2-378x500.jpg2026-04-11 05:22 18K 
[IMG]unnamed-2.jpg2021-08-31 22:44 13K 
[IMG]unnamed-3.jpg2021-08-31 22:46 44K 
[IMG]unnamed-4.jpg2021-08-31 22:47 179K 
[IMG]unnamed-5.jpg2021-08-31 22:52 158K 
[IMG]unnamed-file-120x120.jpg2026-04-11 04:42 4.2K 
[IMG]unnamed-file-150x150.jpg2026-04-11 04:42 6.1K 
[IMG]unnamed-file-300x200.jpg2026-04-11 04:42 14K 
[IMG]unnamed-file-500x500.jpg2026-04-11 04:42 47K 
[IMG]unnamed-file-768x512.jpg2026-04-11 04:42 68K 
[IMG]unnamed-file-1024x683.jpg2026-04-11 04:42 109K 
[IMG]unnamed-file.jpg2021-08-31 22:45 150K 
[IMG]unnamed.jpg2021-08-31 22:37 14K 
[IMG]video.png2021-08-31 22:39 473K 
[IMG]viet.jpg2021-08-31 22:47 77K 

Apache/2.4.59 (Debian) Server at ar.zenit.org Port 443